Time;durP1;ratioP1;P1;durP2;ratioP2;P2;SDS_P1;SDS_P2;PMS_P1;PMS_P2;Temp;Humidity;BMP_temperature;BMP_pressure;BME280_temperature;BME280_humidity;BME280_pressure;Samples;Min_cycle;Max_cycle;Signal;HPM_P1;HPM_P2
2021/01/22 00:01:13;;;;;;;3.45;1.48;;;7.80;99.90;;;;;;5127511;27;20221;-76
2021/01/22 00:03:42;;;;;;;1.20;1.13;;;7.90;99.90;;;;;;5121520;27;20075;-76
2021/01/22 00:06:11;;;;;;;1.30;1.20;;;7.90;99.90;;;;;;5098156;27;20042;-75
2021/01/22 00:08:40;;;;;;;2.25;1.60;;;7.80;99.90;;;;;;5126807;27;20039;-77
2021/01/22 00:11:07;;;;;;;1.77;1.10;;;7.70;99.90;;;;;;5123978;27;20130;-76
2021/01/22 00:13:35;;;;;;;1.50;1.20;;;7.70;99.90;;;;;;5126707;27;20850;-75
2021/01/22 00:16:02;;;;;;;1.23;1.13;;;7.60;99.90;;;;;;5123584;27;20498;-77
2021/01/22 00:18:29;;;;;;;1.23;1.02;;;7.60;99.90;;;;;;5104822;27;20427;-76
2021/01/22 00:20:58;;;;;;;1.30;1.20;;;7.70;99.90;;;;;;5124801;27;20547;-76
2021/01/22 00:23:27;;;;;;;4.07;1.60;;;7.70;99.90;;;;;;5128193;27;20457;-76
2021/01/22 00:25:53;;;;;;;2.67;1.10;;;7.70;99.90;;;;;;5125283;27;20071;-76
2021/01/22 00:28:20;;;;;;;3.53;1.70;;;7.60;99.90;;;;;;5118134;27;20687;-77
2021/01/22 00:30:46;;;;;;;1.40;1.30;;;7.50;99.90;;;;;;5125508;27;20118;-76
2021/01/22 00:33:12;;;;;;;1.90;1.17;;;7.60;99.90;;;;;;5115870;27;20083;-76
2021/01/22 00:35:39;;;;;;;1.33;1.00;;;7.60;99.90;;;;;;5124435;27;20062;-75
2021/01/22 00:38:05;;;;;;;2.10;1.08;;;7.60;99.90;;;;;;5127484;27;20077;-76
2021/01/22 00:40:32;;;;;;;1.45;1.30;;;7.60;99.90;;;;;;5121779;27;20131;-75
2021/01/22 00:42:58;;;;;;;1.40;1.30;;;7.50;99.90;;;;;;5125185;27;20066;-75
2021/01/22 00:45:25;;;;;;;1.85;1.20;;;7.50;99.90;;;;;;5125175;27;20134;-76
2021/01/22 00:47:54;;;;;;;1.70;1.30;;;7.50;99.90;;;;;;5126576;27;20046;-75
2021/01/22 00:50:21;;;;;;;2.95;1.50;;;7.40;99.90;;;;;;5126124;27;20408;-76
2021/01/22 00:52:48;;;;;;;1.60;1.40;;;7.40;99.90;;;;;;5120103;27;20044;-75
2021/01/22 00:55:15;;;;;;;1.50;1.20;;;7.40;99.90;;;;;;5115675;27;20071;-74
2021/01/22 00:57:41;;;;;;;2.45;1.30;;;7.40;99.90;;;;;;5106625;27;20101;-74
2021/01/22 01:00:12;;;;;;;1.88;1.40;;;7.40;99.90;;;;;;5082502;28;20456;-76
2021/01/22 01:02:38;;;;;;;1.33;1.20;;;7.40;99.90;;;;;;5100495;28;20084;-76
2021/01/22 01:05:06;;;;;;;3.72;1.30;;;7.30;99.90;;;;;;5100845;28;20142;-76
2021/01/22 01:07:36;;;;;;;1.30;1.20;;;7.30;99.90;;;;;;5106952;28;20123;-76
2021/01/22 01:10:04;;;;;;;1.27;1.17;;;7.40;99.90;;;;;;5104942;28;20100;-78
2021/01/22 01:12:31;;;;;;;1.98;1.15;;;7.40;99.90;;;;;;5105306;28;20462;-75
2021/01/22 01:14:58;;;;;;;1.08;1.00;;;7.40;99.90;;;;;;5106300;28;20531;-76
2021/01/22 01:17:25;;;;;;;3.40;1.33;;;7.30;99.90;;;;;;5106526;28;20119;-77
2021/01/22 01:19:54;;;;;;;1.30;1.17;;;7.30;99.90;;;;;;5105755;28;20058;-75
2021/01/22 01:22:21;;;;;;;1.08;0.98;;;7.30;99.90;;;;;;5105945;28;20718;-77
2021/01/22 01:24:47;;;;;;;1.13;1.00;;;7.40;99.90;;;;;;5104770;28;20101;-75
2021/01/22 01:27:16;;;;;;;1.77;1.10;;;7.50;99.90;;;;;;5105099;28;20519;-75
2021/01/22 01:29:42;;;;;;;1.50;1.35;;;7.50;99.90;;;;;;5119577;27;20122;-76
2021/01/22 01:32:09;;;;;;;1.40;1.00;;;7.60;99.90;;;;;;5123499;27;20078;-76
2021/01/22 01:34:35;;;;;;;1.92;1.10;;;7.60;99.90;;;;;;5115072;27;20100;-76
2021/01/22 01:37:02;;;;;;;1.83;1.25;;;7.70;99.90;;;;;;5125429;27;20502;-75
2021/01/22 01:39:29;;;;;;;1.48;0.90;;;7.70;99.90;;;;;;5124597;27;20055;-76
2021/01/22 01:41:55;;;;;;;1.30;1.20;;;7.80;99.90;;;;;;5117574;27;20123;-76
2021/01/22 01:44:21;;;;;;;1.33;1.10;;;7.80;99.90;;;;;;5125112;27;20075;-76
2021/01/22 01:46:48;;;;;;;1.77;1.05;;;7.70;99.90;;;;;;5123087;27;20057;-75
2021/01/22 01:49:15;;;;;;;1.25;1.15;;;7.70;99.90;;;;;;5111824;27;20047;-76
2021/01/22 01:51:41;;;;;;;3.13;1.30;;;7.70;99.90;;;;;;5107212;27;20093;-75
2021/01/22 01:54:10;;;;;;;1.40;1.30;;;7.70;99.90;;;;;;5121250;27;20525;-76
2021/01/22 01:56:37;;;;;;;1.63;1.20;;;7.70;99.90;;;;;;5125575;27;20146;-77
2021/01/22 01:59:06;;;;;;;1.25;1.00;;;7.60;99.90;;;;;;5125412;27;20205;-76
2021/01/22 02:01:38;;;;;;;1.30;1.20;;;7.70;99.90;;;;;;5124999;27;20051;-75
2021/01/22 02:04:04;;;;;;;1.23;1.05;;;7.60;99.90;;;;;;5121609;27;20166;-76
2021/01/22 02:06:31;;;;;;;1.30;1.20;;;7.70;99.90;;;;;;5111534;27;20043;-76
2021/01/22 02:08:58;;;;;;;2.22;1.30;;;7.70;99.90;;;;;;5126503;27;20070;-77
2021/01/22 02:11:26;;;;;;;0.98;0.90;;;7.60;99.90;;;;;;5124902;27;20103;-77
2021/01/22 02:13:54;;;;;;;2.15;1.10;;;7.70;99.90;;;;;;5125149;27;20051;-77
2021/01/22 02:16:28;;;;;;;1.75;1.45;;;7.70;99.90;;;;;;5122848;28;20166;-77
2021/01/22 02:19:00;;;;;;;2.17;1.10;;;7.60;99.90;;;;;;5114612;28;20039;-77
2021/01/22 02:21:30;;;;;;;2.30;1.23;;;7.60;99.90;;;;;;5123968;28;20046;-77
2021/01/22 02:24:16;;;;;;;1.48;1.15;;;7.70;99.90;;;;;;5126273;28;20079;-77
2021/01/22 02:26:54;;;;;;;2.75;1.35;;;7.60;99.90;;;;;;5123127;28;20035;-75
2021/01/22 02:29:21;;;;;;;2.17;1.38;;;7.60;99.90;;;;;;5122056;28;20343;-76
2021/01/22 02:31:51;;;;;;;6.47;1.25;;;7.60;99.90;;;;;;5119457;28;20501;-76
2021/01/22 02:34:24;;;;;;;3.25;1.38;;;7.50;99.90;;;;;;5112237;28;20054;-76
2021/01/22 02:36:54;;;;;;;4.25;1.23;;;7.50;99.90;;;;;;5125616;28;20071;-75
2021/01/22 02:39:29;;;;;;;2.33;1.40;;;7.60;99.90;;;;;;5125991;28;20055;-75
2021/01/22 02:41:58;;;;;;;5.20;1.73;;;7.50;99.90;;;;;;5121115;27;21284;-76
2021/01/22 02:44:25;;;;;;;4.53;1.67;;;7.50;99.90;;;;;;5115235;28;20052;-77
2021/01/22 02:46:52;;;;;;;2.65;1.42;;;7.50;99.90;;;;;;5101654;28;20140;-76
2021/01/22 02:49:19;;;;;;;3.05;1.58;;;7.40;99.90;;;;;;5103974;28;20039;-77
2021/01/22 02:51:48;;;;;;;2.15;1.20;;;7.40;99.90;;;;;;5104517;28;20159;-77
2021/01/22 02:54:15;;;;;;;5.05;1.40;;;7.30;99.90;;;;;;5094453;28;20131;-76
2021/01/22 02:57:18;;;;;;;1.98;1.10;;;7.30;99.90;;;;;;5100933;28;20043;-75
2021/01/22 03:00:12;;;;;;;2.40;1.48;;;7.20;99.90;;;;;;5105197;28;20130;-76
2021/01/22 03:02:55;;;;;;;1.95;1.30;;;7.20;99.90;;;;;;5090646;28;20039;-76
2021/01/22 03:05:25;;;;;;;1.55;1.35;;;7.20;99.90;;;;;;5105050;28;20069;-77
2021/01/22 03:08:05;;;;;;;5.88;1.58;;;7.20;99.90;;;;;;5107397;28;20340;-76
2021/01/22 03:10:32;;;;;;;5.53;1.77;;;7.20;99.90;;;;;;5092607;28;20039;-75
2021/01/22 03:13:01;;;;;;;5.32;1.50;;;7.20;99.90;;;;;;5108719;28;20063;-77
2021/01/22 03:15:28;;;;;;;2.17;1.30;;;7.20;99.90;;;;;;5108383;28;20438;-77
2021/01/22 03:18:17;;;;;;;3.63;1.40;;;7.20;99.90;;;;;;5108989;28;20040;-76
2021/01/22 03:20:46;;;;;;;3.50;1.73;;;7.20;99.90;;;;;;5105445;28;20051;-77
2021/01/22 03:23:14;;;;;;;3.58;1.70;;;7.20;99.90;;;;;;5108779;28;20055;-76
2021/01/22 03:25:41;;;;;;;3.40;1.50;;;7.10;99.90;;;;;;5089954;28;20421;-76
2021/01/22 03:28:09;;;;;;;3.25;1.45;;;7.10;99.90;;;;;;5090296;28;20048;-75
2021/01/22 03:30:36;;;;;;;2.72;1.58;;;7.20;99.90;;;;;;5107627;28;20148;-76
2021/01/22 03:33:03;;;;;;;2.28;1.42;;;7.10;99.90;;;;;;5107246;28;20071;-76
2021/01/22 03:35:35;;;;;;;5.93;1.70;;;7.00;99.90;;;;;;5107504;28;20123;-77
2021/01/22 03:38:03;;;;;;;4.43;1.63;;;7.00;99.90;;;;;;5096629;28;20058;-76
2021/01/22 03:40:32;;;;;;;4.13;1.40;;;7.00;99.90;;;;;;5102918;28;20078;-77
2021/01/22 03:42:58;;;;;;;3.83;1.63;;;6.90;99.90;;;;;;5108219;28;20121;-76
2021/01/22 03:45:25;;;;;;;1.52;1.38;;;6.90;99.90;;;;;;5107901;28;20048;-75
2021/01/22 03:47:54;;;;;;;3.42;1.83;;;7.00;99.90;;;;;;5106820;28;20113;-76
2021/01/22 03:50:20;;;;;;;4.00;1.92;;;7.10;99.90;;;;;;5107326;28;20075;-77
2021/01/22 03:52:47;;;;;;;8.40;2.10;;;7.10;99.90;;;;;;5106725;28;20108;-76
2021/01/22 03:55:13;;;;;;;6.03;2.45;;;7.10;99.90;;;;;;5092572;28;20102;-74
2021/01/22 03:57:41;;;;;;;6.13;1.85;;;7.00;99.90;;;;;;5106013;28;20116;-76
2021/01/22 04:00:09;;;;;;;4.45;1.70;;;7.00;99.90;;;;;;5106368;28;20071;-76
2021/01/22 04:02:38;;;;;;;4.30;1.55;;;7.00;99.90;;;;;;5107927;28;20078;-76
2021/01/22 04:05:06;;;;;;;5.35;1.85;;;7.10;99.90;;;;;;5105253;28;20074;-75
2021/01/22 04:07:33;;;;;;;6.90;1.77;;;7.00;99.90;;;;;;5108075;28;20051;-76
2021/01/22 04:10:03;;;;;;;4.05;1.95;;;7.10;99.90;;;;;;5107152;28;20126;-76
2021/01/22 04:12:30;;;;;;;7.20;1.73;;;7.00;99.90;;;;;;5105908;28;20062;-76
2021/01/22 04:14:58;;;;;;;1.88;1.35;;;6.90;99.90;;;;;;5106437;28;20112;-76
2021/01/22 04:17:27;;;;;;;2.78;1.45;;;7.00;99.90;;;;;;5105616;28;20134;-77
2021/01/22 04:19:54;;;;;;;3.88;1.80;;;7.00;99.90;;;;;;5105437;28;20055;-75
2021/01/22 04:22:25;;;;;;;5.03;1.65;;;7.00;99.90;;;;;;5105439;28;20071;-77
2021/01/22 04:24:52;;;;;;;2.85;1.50;;;7.10;99.90;;;;;;5107505;28;20051;-76
2021/01/22 04:27:19;;;;;;;3.70;2.03;;;7.20;99.90;;;;;;5099973;28;20054;-75
2021/01/22 04:29:45;;;;;;;5.00;1.70;;;7.20;99.90;;;;;;5107390;28;20051;-75
2021/01/22 04:32:12;;;;;;;2.88;1.60;;;7.30;99.90;;;;;;5087147;28;20098;-75
2021/01/22 04:34:39;;;;;;;3.13;1.60;;;7.40;99.90;;;;;;5106265;28;20048;-76
2021/01/22 04:37:05;;;;;;;4.45;1.40;;;7.40;99.90;;;;;;5103877;28;20097;-76
2021/01/22 04:39:36;;;;;;;1.70;1.15;;;7.50;99.90;;;;;;5105816;28;20530;-77
2021/01/22 04:42:05;;;;;;;2.92;1.30;;;7.50;99.90;;;;;;5105458;28;20052;-76
2021/01/22 04:44:34;;;;;;;2.88;1.25;;;7.40;99.90;;;;;;5105605;28;20048;-76
2021/01/22 04:47:06;;;;;;;3.97;1.17;;;7.50;99.90;;;;;;5106957;28;20626;-75
2021/01/22 04:49:34;;;;;;;2.83;1.27;;;7.50;99.90;;;;;;5105493;28;20505;-78
2021/01/22 04:52:05;;;;;;;4.13;1.13;;;7.40;99.90;;;;;;5106972;28;20383;-74
2021/01/22 04:54:37;;;;;;;1.60;1.20;;;7.40;99.90;;;;;;5098959;28;20082;-77
2021/01/22 04:57:06;;;;;;;2.13;1.10;;;7.30;99.90;;;;;;5090387;28;20071;-77
2021/01/22 04:59:50;;;;;;;1.88;1.33;;;7.40;99.90;;;;;;5096140;28;20457;-76
2021/01/22 05:02:17;;;;;;;2.50;1.40;;;7.40;99.90;;;;;;5095046;28;20051;-75
2021/01/22 05:04:43;;;;;;;1.90;1.20;;;7.30;99.90;;;;;;5105629;28;20398;-74
2021/01/22 05:07:14;;;;;;;2.15;1.30;;;7.40;99.90;;;;;;5104436;28;20116;-75
2021/01/22 05:09:40;;;;;;;2.65;1.08;;;7.40;99.90;;;;;;5103811;28;20100;-75
2021/01/22 05:12:10;;;;;;;3.00;1.20;;;7.40;99.90;;;;;;5105089;28;20146;-75
2021/01/22 05:14:38;;;;;;;4.43;1.20;;;7.30;99.90;;;;;;5105750;28;20043;-75
2021/01/22 05:17:09;;;;;;;1.73;1.23;;;7.40;99.90;;;;;;5103313;28;20047;-75
2021/01/22 05:19:42;;;;;;;3.25;1.40;;;7.40;99.90;;;;;;5088050;28;20051;-75
2021/01/22 05:22:13;;;;;;;1.38;0.75;;;7.40;99.90;;;;;;5101021;28;20063;-75
2021/01/22 05:24:40;;;;;;;3.55;0.90;;;7.30;99.90;;;;;;5104090;28;20055;-75
2021/01/22 05:27:11;;;;;;;1.67;1.58;;;7.30;99.90;;;;;;5100812;28;20083;-75
2021/01/22 05:29:41;;;;;;;1.10;1.00;;;7.20;99.90;;;;;;5094192;28;20067;-75
2021/01/22 05:32:31;;;;;;;2.28;1.48;;;7.20;99.90;;;;;;5105916;28;20136;-76
2021/01/22 05:34:58;;;;;;;3.00;1.35;;;7.20;99.90;;;;;;5096809;28;20078;-75
2021/01/22 05:37:27;;;;;;;2.53;1.33;;;7.20;99.90;;;;;;5104142;28;20105;-76
2021/01/22 05:40:19;;;;;;;2.25;1.00;;;7.20;99.90;;;;;;5104879;28;20062;-76
2021/01/22 05:42:47;;;;;;;2.17;1.20;;;7.20;99.90;;;;;;5103567;28;20148;-75
2021/01/22 05:45:14;;;;;;;1.50;0.93;;;7.20;99.90;;;;;;5097274;28;20047;-76
2021/01/22 05:47:44;;;;;;;1.55;1.00;;;7.30;99.90;;;;;;5097796;28;20036;-75
2021/01/22 05:50:11;;;;;;;1.80;0.98;;;7.30;99.90;;;;;;5085859;28;20044;-75
2021/01/22 05:52:38;;;;;;;1.33;0.95;;;7.20;99.90;;;;;;5089175;28;20046;-75
2021/01/22 05:55:19;;;;;;;1.42;1.10;;;7.10;99.90;;;;;;5088782;28;20093;-75
2021/01/22 05:57:46;;;;;;;2.53;1.10;;;7.20;99.90;;;;;;5097503;28;20051;-75
2021/01/22 06:00:17;;;;;;;3.70;0.85;;;7.20;99.90;;;;;;5104645;28;20126;-75
2021/01/22 06:02:44;;;;;;;0.93;0.80;;;7.20;99.90;;;;;;5104913;28;20036;-76
2021/01/22 06:05:18;;;;;;;0.90;0.90;;;7.20;99.90;;;;;;5085626;28;20047;-76
2021/01/22 06:07:46;;;;;;;2.40;1.05;;;7.30;99.90;;;;;;5085780;28;20454;-75
2021/01/22 06:10:14;;;;;;;1.20;0.70;;;7.20;99.90;;;;;;5098893;28;20133;-76
2021/01/22 06:12:47;;;;;;;2.80;1.10;;;7.20;99.90;;;;;;5088449;28;20075;-76
2021/01/22 06:15:18;;;;;;;3.92;1.20;;;7.20;99.90;;;;;;5100534;28;20112;-76
2021/01/22 06:17:51;;;;;;;2.17;1.50;;;7.20;99.90;;;;;;5099285;28;20154;-76
2021/01/22 06:20:23;;;;;;;2.40;1.05;;;7.20;99.90;;;;;;5103879;28;20470;-76
2021/01/22 06:23:06;;;;;;;4.57;1.10;;;7.20;99.90;;;;;;5103221;28;20490;-75
2021/01/22 06:25:38;;;;;;;2.53;1.25;;;7.20;99.90;;;;;;5082671;28;20117;-75
2021/01/22 06:28:07;;;;;;;1.75;1.00;;;7.20;99.90;;;;;;5102785;28;20060;-76
2021/01/22 06:30:35;;;;;;;1.60;0.95;;;7.10;99.90;;;;;;5104623;28;20125;-76
2021/01/22 06:33:05;;;;;;;3.20;1.23;;;7.20;99.90;;;;;;5103443;28;20119;-76
2021/01/22 06:35:37;;;;;;;2.78;1.05;;;7.30;99.90;;;;;;5103266;28;20745;-76
2021/01/22 06:38:06;;;;;;;2.00;1.00;;;7.20;99.90;;;;;;5103300;28;20421;-76
2021/01/22 06:40:35;;;;;;;1.15;1.00;;;7.20;99.90;;;;;;5105085;28;20052;-77
2021/01/22 06:43:04;;;;;;;2.63;1.02;;;7.20;99.90;;;;;;5108380;28;20118;-75
2021/01/22 06:45:30;;;;;;;3.25;1.30;;;7.20;99.90;;;;;;5109051;28;20549;-76
2021/01/22 06:47:59;;;;;;;2.65;1.45;;;7.20;99.90;;;;;;5107664;28;20720;-76
2021/01/22 06:50:27;;;;;;;1.85;1.38;;;7.20;99.90;;;;;;5105992;28;20058;-76
2021/01/22 06:53:10;;;;;;;2.38;1.02;;;7.10;99.90;;;;;;5106686;28;20055;-77
2021/01/22 06:55:59;;;;;;;1.75;1.25;;;7.00;99.90;;;;;;5091639;28;20056;-76
2021/01/22 06:58:31;;;;;;;1.55;1.00;;;7.10;99.90;;;;;;5105620;28;20079;-76
2021/01/22 07:01:26;;;;;;;2.40;1.23;;;7.10;99.90;;;;;;5106126;28;20104;-76
2021/01/22 07:03:53;;;;;;;1.88;1.20;;;7.20;99.90;;;;;;5106539;28;20050;-75
2021/01/22 07:06:31;;;;;;;1.10;1.00;;;7.10;99.90;;;;;;5105775;28;20067;-76
2021/01/22 07:09:00;;;;;;;0.90;0.90;;;7.10;99.90;;;;;;5094843;28;20107;-76
2021/01/22 07:11:54;;;;;;;1.17;1.08;;;7.20;99.90;;;;;;5092979;28;20496;-75
2021/01/22 07:14:38;;;;;;;3.33;1.20;;;7.20;99.90;;;;;;5105824;28;20137;-75
2021/01/22 07:17:15;;;;;;;3.53;1.35;;;7.10;99.90;;;;;;5103594;28;20050;-77
2021/01/22 07:19:59;;;;;;;3.55;1.25;;;7.20;99.90;;;;;;5107680;28;20435;-75
2021/01/22 07:22:35;;;;;;;1.42;1.08;;;7.20;99.90;;;;;;5107412;28;20378;-76
2021/01/22 07:25:04;;;;;;;2.53;1.15;;;7.20;99.90;;;;;;5107496;28;20393;-75
2021/01/22 07:27:43;;;;;;;1.58;1.05;;;7.30;99.90;;;;;;5107314;28;20495;-76
2021/01/22 07:30:10;;;;;;;2.85;1.48;;;7.40;99.90;;;;;;5103737;28;20048;-75
2021/01/22 07:32:37;;;;;;;4.43;1.50;;;7.40;99.90;;;;;;5097425;28;20062;-75
2021/01/22 07:35:09;;;;;;;1.83;1.10;;;7.40;99.90;;;;;;5086596;28;20059;-75
2021/01/22 07:37:38;;;;;;;3.15;1.42;;;7.40;99.90;;;;;;5092424;28;20051;-75
2021/01/22 07:40:09;;;;;;;1.92;1.35;;;7.30;99.90;;;;;;5100016;28;20106;-75
2021/01/22 07:42:37;;;;;;;1.45;1.33;;;7.40;99.90;;;;;;5103826;28;20047;-75
2021/01/22 07:45:15;;;;;;;2.35;1.33;;;7.40;99.90;;;;;;5105099;28;20509;-75
2021/01/22 07:47:49;;;;;;;3.60;1.13;;;7.50;99.90;;;;;;5102166;28;20054;-75
2021/01/22 07:50:18;;;;;;;1.27;0.93;;;7.50;99.90;;;;;;5095127;28;20629;-76
2021/01/22 07:52:49;;;;;;;1.33;1.00;;;7.50;99.90;;;;;;5103594;28;20036;-76
2021/01/22 07:55:20;;;;;;;1.20;1.10;;;7.50;99.90;;;;;;5093466;28;20509;-75
2021/01/22 07:58:03;;;;;;;1.58;1.02;;;7.60;99.90;;;;;;5108154;28;20048;-76
2021/01/22 08:00:39;;;;;;;1.45;1.23;;;7.60;99.90;;;;;;5094748;28;20067;-76
2021/01/22 08:03:06;;;;;;;2.80;1.40;;;7.60;99.90;;;;;;5106987;28;20236;-75
2021/01/22 08:05:37;;;;;;;1.83;0.90;;;7.60;99.90;;;;;;5107201;27;20044;-75
2021/01/22 08:08:21;;;;;;;1.20;1.00;;;7.60;99.90;;;;;;5108405;28;20040;-74
2021/01/22 08:10:47;;;;;;;1.83;1.00;;;7.60;99.90;;;;;;5097884;28;20044;-74
2021/01/22 08:13:17;;;;;;;1.67;1.17;;;7.60;99.90;;;;;;5107530;28;20044;-75
2021/01/22 08:15:44;;;;;;;1.05;1.05;;;7.60;99.90;;;;;;5108005;28;20452;-75
2021/01/22 08:18:13;;;;;;;4.38;1.20;;;7.60;99.90;;;;;;5107201;28;20085;-75
2021/01/22 08:20:49;;;;;;;1.20;0.90;;;7.60;99.90;;;;;;5106116;28;20039;-75
2021/01/22 08:23:20;;;;;;;0.82;0.82;;;7.60;99.90;;;;;;5105860;28;20522;-75
2021/01/22 08:25:46;;;;;;;1.08;0.95;;;7.60;99.90;;;;;;5083915;28;20672;-75
2021/01/22 08:28:13;;;;;;;0.80;0.80;;;7.60;99.90;;;;;;5097456;28;20059;-75
2021/01/22 08:30:40;;;;;;;1.70;1.10;;;7.70;99.90;;;;;;5107075;28;20039;-75
2021/01/22 08:33:07;;;;;;;2.45;0.90;;;7.80;99.90;;;;;;5108035;28;20066;-75
2021/01/22 08:35:37;;;;;;;3.15;0.90;;;8.00;99.90;;;;;;5107037;28;20052;-74
2021/01/22 08:38:06;;;;;;;2.88;1.00;;;8.20;99.90;;;;;;5107657;28;20558;-74
2021/01/22 08:40:41;;;;;;;1.95;0.95;;;8.30;99.90;;;;;;5106287;28;20066;-75
2021/01/22 08:43:09;;;;;;;1.10;1.00;;;8.40;99.90;;;;;;5105559;28;20116;-75
2021/01/22 08:45:37;;;;;;;1.55;1.33;;;8.40;99.90;;;;;;5105924;28;20135;-75
2021/01/22 08:48:04;;;;;;;0.93;0.88;;;8.40;99.90;;;;;;5107508;28;20047;-75
2021/01/22 08:50:31;;;;;;;2.25;1.00;;;8.50;99.90;;;;;;5105162;28;20770;-76
2021/01/22 08:53:10;;;;;;;2.90;1.10;;;8.60;99.90;;;;;;5105953;28;20035;-75
2021/01/22 08:55:40;;;;;;;2.03;0.90;;;8.70;99.90;;;;;;5094353;28;20432;-74
2021/01/22 08:58:11;;;;;;;1.55;1.15;;;8.70;99.90;;;;;;5090730;28;20040;-76
2021/01/22 09:00:42;;;;;;;2.73;1.30;;;8.70;99.90;;;;;;5099508;28;20608;-75
2021/01/22 09:03:25;;;;;;;2.83;1.00;;;8.80;99.90;;;;;;5091988;28;20043;-75
2021/01/22 09:05:53;;;;;;;1.25;0.98;;;8.80;99.90;;;;;;5099031;28;20051;-76
2021/01/22 09:08:24;;;;;;;2.28;0.80;;;8.90;99.90;;;;;;5092423;28;20055;-76
2021/01/22 09:10:51;;;;;;;2.58;1.15;;;8.90;99.90;;;;;;5104752;28;20430;-75
2021/01/22 09:13:25;;;;;;;0.93;0.93;;;9.00;99.90;;;;;;5084892;28;20120;-76
2021/01/22 09:16:07;;;;;;;1.40;0.90;;;9.00;99.90;;;;;;5090700;28;20686;-76
2021/01/22 09:18:34;;;;;;;1.40;0.77;;;9.10;99.90;;;;;;5107194;28;20382;-75
2021/01/22 09:21:06;;;;;;;2.40;1.10;;;9.10;99.90;;;;;;5105885;28;20401;-75
2021/01/22 09:23:38;;;;;;;1.17;1.05;;;9.10;99.90;;;;;;5107045;28;20051;-75
2021/01/22 09:26:06;;;;;;;1.27;1.00;;;9.20;99.90;;;;;;5104622;28;20043;-76
2021/01/22 09:28:34;;;;;;;2.58;1.08;;;9.40;99.90;;;;;;5105199;28;20048;-76
2021/01/22 09:31:04;;;;;;;1.25;0.90;;;9.70;99.90;;;;;;5106013;28;20039;-75
2021/01/22 09:33:33;;;;;;;1.50;1.15;;;10.00;99.90;;;;;;5105634;28;20105;-75
2021/01/22 09:36:02;;;;;;;1.70;0.88;;;10.30;99.90;;;;;;5103679;28;20096;-75
2021/01/22 09:38:29;;;;;;;1.88;0.98;;;10.50;99.90;;;;;;5103675;28;20714;-76
2021/01/22 09:40:55;;;;;;;4.60;1.15;;;10.70;99.90;;;;;;5103868;28;20048;-77
2021/01/22 09:43:23;;;;;;;3.15;1.10;;;10.80;99.90;;;;;;5105263;28;20047;-76
2021/01/22 09:45:52;;;;;;;1.08;0.75;;;10.70;99.90;;;;;;5084506;28;20040;-76
2021/01/22 09:48:21;;;;;;;2.78;1.35;;;10.10;99.90;;;;;;5103435;28;20116;-77
2021/01/22 09:50:50;;;;;;;1.63;0.95;;;9.70;99.90;;;;;;5104423;28;20044;-76
2021/01/22 09:53:17;;;;;;;1.60;1.08;;;9.50;99.90;;;;;;5099560;28;20121;-76
2021/01/22 09:55:50;;;;;;;1.33;1.00;;;9.30;99.90;;;;;;5093295;28;20097;-76
2021/01/22 09:58:19;;;;;;;2.28;1.00;;;9.20;99.90;;;;;;5102894;28;20065;-77
2021/01/22 10:00:45;;;;;;;3.40;1.42;;;9.20;99.90;;;;;;5104145;28;20117;-76
2021/01/22 10:03:12;;;;;;;1.08;0.98;;;9.20;99.90;;;;;;5085043;28;20055;-76
2021/01/22 10:05:42;;;;;;;2.63;1.10;;;9.30;99.90;;;;;;5103738;28;20043;-76
2021/01/22 10:08:08;;;;;;;2.70;1.00;;;9.40;99.90;;;;;;5103920;28;20116;-77
2021/01/22 10:10:35;;;;;;;2.97;1.17;;;9.60;99.90;;;;;;5102538;28;20043;-76
2021/01/22 10:13:06;;;;;;;1.83;1.08;;;9.90;99.90;;;;;;5102882;28;20052;-75
2021/01/22 10:15:34;;;;;;;1.45;0.88;;;10.00;99.90;;;;;;5083292;28;20617;-76
2021/01/22 10:18:02;;;;;;;2.03;0.90;;;10.10;99.90;;;;;;5105000;28;20044;-77
2021/01/22 10:20:31;;;;;;;1.55;1.10;;;10.10;99.90;;;;;;5101411;28;20047;-76
2021/01/22 10:22:57;;;;;;;3.45;1.15;;;9.90;99.90;;;;;;5104819;28;20487;-77
2021/01/22 10:25:26;;;;;;;6.20;1.15;;;10.10;99.90;;;;;;5102291;28;20055;-76
2021/01/22 10:27:53;;;;;;;3.42;1.17;;;10.40;99.90;;;;;;5104196;28;20124;-76
2021/01/22 10:30:20;;;;;;;2.08;1.20;;;10.90;99.90;;;;;;5102620;28;20047;-75
2021/01/22 10:32:49;;;;;;;1.58;0.88;;;11.30;99.90;;;;;;5103081;28;20560;-74
2021/01/22 10:35:16;;;;;;;3.58;1.20;;;11.80;97.80;;;;;;5103297;28;20071;-77
2021/01/22 10:37:44;;;;;;;1.38;0.77;;;12.60;93.90;;;;;;5098666;28;20135;-74
2021/01/22 10:40:11;;;;;;;3.10;1.10;;;12.80;90.10;;;;;;5103160;28;20054;-74
2021/01/22 10:42:38;;;;;;;5.95;1.00;;;12.80;89.90;;;;;;5102926;28;20071;-75
2021/01/22 10:45:05;;;;;;;4.25;1.10;;;13.00;87.00;;;;;;5104403;28;20065;-75
2021/01/22 10:47:34;;;;;;;0.75;0.70;;;12.70;87.50;;;;;;5104308;28;20036;-74
2021/01/22 10:50:05;;;;;;;1.65;1.02;;;13.00;87.70;;;;;;5103717;28;20382;-75
2021/01/22 10:52:34;;;;;;;2.33;0.80;;;13.00;87.40;;;;;;5102804;28;20051;-74
2021/01/22 10:55:01;;;;;;;2.17;0.85;;;13.20;86.20;;;;;;5096116;28;20036;-76
2021/01/22 10:57:31;;;;;;;1.95;0.85;;;13.20;83.60;;;;;;5102548;28;20135;-75
2021/01/22 11:00:00;;;;;;;1.40;0.90;;;13.70;83.10;;;;;;5103606;28;20050;-76
2021/01/22 11:02:29;;;;;;;3.20;0.88;;;13.90;79.90;;;;;;5103716;28;20055;-76
2021/01/22 11:04:57;;;;;;;1.75;1.20;;;14.40;76.80;;;;;;5104608;28;20641;-75
2021/01/22 11:07:23;;;;;;;3.28;1.10;;;14.50;75.60;;;;;;5105568;28;20051;-76
2021/01/22 11:09:52;;;;;;;2.92;1.10;;;13.90;75.90;;;;;;5098760;28;20482;-76
2021/01/22 11:12:19;;;;;;;1.92;1.05;;;12.70;81.00;;;;;;5098573;28;20583;-75
2021/01/22 11:14:48;;;;;;;0.65;0.65;;;12.20;89.90;;;;;;5105488;28;20134;-75
2021/01/22 11:17:17;;;;;;;2.25;0.80;;;11.90;91.90;;;;;;5085896;28;20058;-76
2021/01/22 11:19:44;;;;;;;1.40;1.05;;;11.50;94.70;;;;;;5099707;28;20584;-76
2021/01/22 11:22:11;;;;;;;1.48;0.98;;;11.50;96.40;;;;;;5104985;28;20753;-76
2021/01/22 11:24:42;;;;;;;2.58;1.10;;;11.50;98.10;;;;;;5104930;28;20794;-77
2021/01/22 11:27:11;;;;;;;2.08;0.90;;;11.50;98.50;;;;;;5104684;28;20047;-76
2021/01/22 11:29:38;;;;;;;3.83;1.00;;;11.30;98.40;;;;;;5097457;28;20972;-75
2021/01/22 11:32:06;;;;;;;1.63;0.88;;;11.10;98.40;;;;;;5106679;28;20502;-75
2021/01/22 11:34:35;;;;;;;3.22;1.17;;;10.90;99.90;;;;;;5086054;28;20626;-75
2021/01/22 11:37:06;;;;;;;4.38;1.30;;;10.90;99.90;;;;;;5097030;28;20047;-75
2021/01/22 11:39:38;;;;;;;1.00;0.90;;;11.00;99.90;;;;;;5102049;28;20093;-75
2021/01/22 11:42:09;;;;;;;1.63;1.10;;;11.00;99.90;;;;;;5100251;28;20458;-76
2021/01/22 11:44:39;;;;;;;2.70;0.98;;;11.00;99.90;;;;;;5100058;28;20040;-75
2021/01/22 11:47:06;;;;;;;1.83;0.85;;;11.10;99.90;;;;;;5101895;28;20047;-74
2021/01/22 11:49:32;;;;;;;1.88;0.95;;;11.20;98.40;;;;;;5087115;28;20051;-74
2021/01/22 11:51:59;;;;;;;2.83;0.88;;;11.20;99.00;;;;;;5099656;27;20040;-75
2021/01/22 11:54:25;;;;;;;2.25;0.75;;;11.20;99.40;;;;;;5086314;28;20044;-76
2021/01/22 11:56:52;;;;;;;1.10;0.80;;;11.30;97.50;;;;;;5103181;28;20044;-75
2021/01/22 11:59:22;;;;;;;1.83;0.85;;;11.30;94.60;;;;;;5106715;28;20208;-76
2021/01/22 12:01:48;;;;;;;2.38;1.00;;;11.30;95.60;;;;;;5100718;28;20078;-76
2021/01/22 12:04:15;;;;;;;2.55;0.95;;;11.30;93.00;;;;;;5107155;28;20065;-76
2021/01/22 12:06:45;;;;;;;2.35;0.70;;;11.40;92.90;;;;;;5106020;28;20056;-76
2021/01/22 12:09:11;;;;;;;0.98;0.80;;;11.70;92.40;;;;;;5101985;28;20051;-78
2021/01/22 12:11:38;;;;;;;1.77;0.90;;;11.70;88.90;;;;;;5105599;28;20054;-74
2021/01/22 12:14:05;;;;;;;2.33;0.80;;;11.60;89.80;;;;;;5106594;28;20112;-76
2021/01/22 12:16:33;;;;;;;0.63;0.63;;;11.70;90.00;;;;;;5105651;28;20067;-75
2021/01/22 12:19:03;;;;;;;1.13;0.70;;;11.80;90.60;;;;;;5107291;28;20035;-75
2021/01/22 12:21:31;;;;;;;1.52;0.95;;;11.70;86.40;;;;;;5105508;28;20056;-75
2021/01/22 12:23:57;;;;;;;1.80;1.10;;;11.70;86.70;;;;;;5108286;28;20047;-74
2021/01/22 12:26:24;;;;;;;0.95;0.70;;;11.80;85.00;;;;;;5104892;28;20112;-75
2021/01/22 12:28:56;;;;;;;2.80;1.00;;;11.90;86.10;;;;;;5106847;28;20142;-75
2021/01/22 12:31:24;;;;;;;1.48;0.70;;;12.40;81.00;;;;;;5071651;28;20058;-75
2021/01/22 12:33:50;;;;;;;1.20;0.90;;;13.60;75.50;;;;;;5107691;28;20043;-75
2021/01/22 12:36:19;;;;;;;1.10;0.88;;;14.60;69.40;;;;;;5106572;28;20048;-76
2021/01/22 12:38:50;;;;;;;2.70;1.48;;;13.60;69.80;;;;;;5107095;28;20052;-76
2021/01/22 12:41:19;;;;;;;2.05;1.23;;;12.90;74.80;;;;;;5106772;28;20559;-76
2021/01/22 12:43:48;;;;;;;5.82;1.20;;;12.30;78.90;;;;;;5106331;28;20119;-75
2021/01/22 12:46:17;;;;;;;2.67;1.20;;;12.00;81.00;;;;;;5105848;28;20085;-76
2021/01/22 12:48:44;;;;;;;2.33;1.00;;;11.90;86.30;;;;;;5106344;28;20069;-77
2021/01/22 12:51:12;;;;;;;2.92;1.00;;;11.60;89.00;;;;;;5104794;28;20044;-77
2021/01/22 12:53:39;;;;;;;2.55;1.00;;;11.50;88.90;;;;;;5088639;28;20075;-77
2021/01/22 12:56:08;;;;;;;2.40;0.80;;;11.30;87.20;;;;;;5106578;28;20068;-77
2021/01/22 12:58:35;;;;;;;6.72;2.53;;;11.30;89.90;;;;;;5097400;28;20093;-77
2021/01/22 13:01:01;;;;;;;6.57;3.10;;;11.20;91.40;;;;;;5105958;28;20132;-77
2021/01/22 13:03:28;;;;;;;10.07;3.40;;;11.10;91.00;;;;;;5099511;28;20043;-76
2021/01/22 13:05:54;;;;;;;6.15;2.38;;;11.10;90.90;;;;;;5105106;28;20503;-77
2021/01/22 13:08:21;;;;;;;3.30;2.05;;;11.20;89.70;;;;;;5107068;27;20055;-77